Terminal Aerodrome Forecast
Issued by NWS Shreveport, LA

Home | Current Version | Previous Version | Text Only | Print | Product List | Glossary On
Versions: 1 2 3 4 5 6 7 8 9 10 11 12 13 14 15 16 17 18
267
FTUS44 KSHV 211336 AAA
TAFGGG
TAF AMD
KGGG 211336Z 2114/2212 00000KT P6SM BKN007
      TEMPO 2114/2116 1/4SM FG BKN001
     FM211600 18006KT P6SM OVC008
     FM211800 19007KT P6SM VCSH OVC015
     FM212100 20010KT P6SM VCSH OVC025
     FM220000 21008KT P6SM SCT035 BKN150
     FM220500 21010KT P6SM BKN250=

USA.gov is the U.S. government's official web portal to all federal, state and local government web resources and services.